Historyczne dane pomiarowe

Dodano dane terminowe – wersja testowa.

Dane z okresu 1951-2019

Wersja bazy: 1.34 [2019-03-16, lista zmian], aktualizacja planowana na 2019-04-15

Dane meteo z obszaru Polski uzyskane na podstawie danych udostępnionych przez Instytut Meteorologii i Gospodarki Wodnej – Państwowy Instytut Badawczy.

 

Wybierz Datę:    

       

TemperaturaWilgotnośćZachmurzenieWiatrCiśnienieWidzialnośćZjawiska
 Data    tng td wb rh cc ccl cl cm ch dir g1 g2 mslp ppp      
1994-09-13 00:00:00 7.8--- 7.1 7.596wxwxwxwx9wx--- 803.8 0.0---wxw1
1994-09-13 01:00:00 8.0--- 7.0 7.493wxwxwxwx9wx--- 803.7----wx
1994-09-13 02:00:00 8.0--- 6.1 7.087wxwx8wx--- 803.0----wx
1994-09-13 03:00:00 7.7--- 6.7 7.192wxwxwxwx11wx--- 802.8----wx
1994-09-13 04:00:00 7.6--- 7.1 7.497wxwxwx11wx--- 802.6----wx
1994-09-13 05:00:00 8.1--- 7.4 7.896wxwxwx11wx--- 802.8----wx
1994-09-13 06:00:00 8.6--- 7.3 7.991wxwxwxwxwx13wx23-- 802.6 0.0---wx
1994-09-13 07:00:00 8.7--- 7.4 8.091wxwxwxwx11wx--- 802.3----wx
1994-09-13 08:00:00 8.9--- 8.1 8.494wxwxwx13wx--- 802.3----wx
1994-09-13 09:00:00 9.1--- 8.1 8.593wxwxwx10wx--- 802.6----wx
1994-09-13 10:00:00 9.5--- 8.2 8.892wxwxwx8wx--- 802.7----wx
1994-09-13 11:00:00 10.3--- 8.2 9.287wxwxwx7wx--- 803.1----wx
1994-09-13 12:00:00 10.6--- 8.8 9.688wxwxwxwx6wx--- 802.9 0.0---wx
1994-09-13 13:00:00 10.3--- 8.6 9.489wxwxwxwx6wx--- 803.0----wx
1994-09-13 14:00:00 10.1--- 8.9 9.492wxwxwx6wx--- 802.6----wx
1994-09-13 15:00:00 9.9--- 8.9 9.393wxwxwx8wx--- 802.4----wx
1994-09-13 16:00:00 9.6--- 8.8 9.295wxwxwx6wx--- 802.3----wx
1994-09-13 17:00:00 9.3--- 9.0 9.299wxwxwx5wx--- 802.3----wx
1994-09-13 18:00:00 9.3--- 8.5 8.995wxwxwx9wx--- 802.5 0.0---wxw1
1994-09-13 19:00:00 9.1--- 8.9 9.099wxwxwx9wx--- 802.5----wx
1994-09-13 20:00:00 9.0--- 8.6 8.897wxwxwx8wx--- 802.4----wxw1
1994-09-13 21:00:00 9.2--- 8.4 8.895wxwxwx7wx--- 802.0----wx
1994-09-13 22:00:00 9.1--- 9.0 9.1100wxwx9wx--- 801.8----wx
1994-09-13 23:00:00 9.3--- 9.3 9.3100wxwx9wx--- 801.4----wxw1

 

Źródłem pochodzenia danych jest Instytut Meteorologii i Gospodarki Wodnej – Państwowy Instytut Badawczy. Dane Instytutu Meteorologii i Gospodarki Wodnej – Państwowego Instytutu Badawczego zostały przetworzone.

Dane źródłowe można odnaleźć na stronie https://dane.imgw.pl